sensor_id;sensor_type;location;lat;lon;timestamp;P1;durP1;ratioP1;P2;durP2;ratioP2
84168;SDS011;74295;50.146;8.794;2024-03-22T00:09:34;17.23;;;12.70;;
84168;SDS011;74295;50.146;8.794;2024-03-22T00:19:35;20.50;;;13.90;;
84168;SDS011;74295;50.146;8.794;2024-03-22T00:29:38;21.83;;;13.47;;
84168;SDS011;74295;50.146;8.794;2024-03-22T00:39:40;21.33;;;14.40;;
84168;SDS011;74295;50.146;8.794;2024-03-22T00:49:43;19.00;;;13.43;;
84168;SDS011;74295;50.146;8.794;2024-03-22T00:59:45;18.93;;;14.03;;
84168;SDS011;74295;50.146;8.794;2024-03-22T01:09:49;19.97;;;14.03;;
84168;SDS011;74295;50.146;8.794;2024-03-22T01:19:50;22.50;;;15.27;;
84168;SDS011;74295;50.146;8.794;2024-03-22T01:29:54;21.80;;;14.07;;
84168;SDS011;74295;50.146;8.794;2024-03-22T01:39:55;20.83;;;13.93;;
84168;SDS011;74295;50.146;8.794;2024-03-22T01:50:00;21.83;;;13.40;;
84168;SDS011;74295;50.146;8.794;2024-03-22T02:00:03;17.60;;;12.57;;
84168;SDS011;74295;50.146;8.794;2024-03-22T02:10:08;20.47;;;13.60;;
84168;SDS011;74295;50.146;8.794;2024-03-22T02:20:11;24.53;;;14.53;;
84168;SDS011;74295;50.146;8.794;2024-03-22T02:30:14;21.40;;;14.67;;
84168;SDS011;74295;50.146;8.794;2024-03-22T02:40:16;20.17;;;13.93;;
84168;SDS011;74295;50.146;8.794;2024-03-22T02:50:19;17.50;;;12.50;;
84168;SDS011;74295;50.146;8.794;2024-03-22T03:00:20;17.93;;;13.07;;
84168;SDS011;74295;50.146;8.794;2024-03-22T03:10:24;18.17;;;13.10;;
84168;SDS011;74295;50.146;8.794;2024-03-22T03:20:26;17.57;;;12.43;;
84168;SDS011;74295;50.146;8.794;2024-03-22T03:30:29;21.00;;;14.07;;
84168;SDS011;74295;50.146;8.794;2024-03-22T03:40:30;18.60;;;14.23;;
84168;SDS011;74295;50.146;8.794;2024-03-22T03:50:33;20.10;;;14.67;;
84168;SDS011;74295;50.146;8.794;2024-03-22T04:00:35;21.40;;;14.27;;
84168;SDS011;74295;50.146;8.794;2024-03-22T04:10:38;21.93;;;14.50;;
84168;SDS011;74295;50.146;8.794;2024-03-22T04:20:40;21.70;;;13.83;;
84168;SDS011;74295;50.146;8.794;2024-03-22T04:30:43;18.47;;;13.33;;
84168;SDS011;74295;50.146;8.794;2024-03-22T04:40:45;20.03;;;14.63;;
84168;SDS011;74295;50.146;8.794;2024-03-22T04:50:48;21.50;;;14.80;;
84168;SDS011;74295;50.146;8.794;2024-03-22T05:00:55;19.40;;;13.70;;
84168;SDS011;74295;50.146;8.794;2024-03-22T05:10:59;24.83;;;16.60;;
84168;SDS011;74295;50.146;8.794;2024-03-22T05:21:01;26.10;;;17.57;;
84168;SDS011;74295;50.146;8.794;2024-03-22T05:31:04;23.33;;;16.23;;
84168;SDS011;74295;50.146;8.794;2024-03-22T05:41:07;19.17;;;14.40;;
84168;SDS011;74295;50.146;8.794;2024-03-22T05:51:10;17.97;;;13.30;;
84168;SDS011;74295;50.146;8.794;2024-03-22T06:01:12;21.47;;;14.73;;
84168;SDS011;74295;50.146;8.794;2024-03-22T06:11:15;23.40;;;16.33;;
84168;SDS011;74295;50.146;8.794;2024-03-22T06:21:17;20.37;;;14.63;;
84168;SDS011;74295;50.146;8.794;2024-03-22T06:31:23;27.57;;;17.83;;
84168;SDS011;74295;50.146;8.794;2024-03-22T06:41:25;22.77;;;16.40;;
84168;SDS011;74295;50.146;8.794;2024-03-22T06:51:28;35.03;;;19.00;;
84168;SDS011;74295;50.146;8.794;2024-03-22T07:01:30;20.60;;;15.23;;
84168;SDS011;74295;50.146;8.794;2024-03-22T07:11:33;22.57;;;15.27;;
84168;SDS011;74295;50.146;8.794;2024-03-22T07:21:35;21.63;;;14.73;;
84168;SDS011;74295;50.146;8.794;2024-03-22T07:31:38;20.03;;;14.93;;
84168;SDS011;74295;50.146;8.794;2024-03-22T07:41:40;34.27;;;21.03;;
84168;SDS011;74295;50.146;8.794;2024-03-22T07:51:43;61.13;;;32.10;;
84168;SDS011;74295;50.146;8.794;2024-03-22T08:01:44;30.17;;;17.90;;
84168;SDS011;74295;50.146;8.794;2024-03-22T08:11:48;27.93;;;16.53;;
84168;SDS011;74295;50.146;8.794;2024-03-22T08:21:50;24.30;;;16.53;;
84168;SDS011;74295;50.146;8.794;2024-03-22T08:31:53;19.77;;;13.30;;
84168;SDS011;74295;50.146;8.794;2024-03-22T08:41:54;16.70;;;11.87;;
84168;SDS011;74295;50.146;8.794;2024-03-22T08:51:58;17.73;;;11.77;;
84168;SDS011;74295;50.146;8.794;2024-03-22T09:01:59;17.13;;;11.53;;
84168;SDS011;74295;50.146;8.794;2024-03-22T09:12:03;14.43;;;9.13;;
84168;SDS011;74295;50.146;8.794;2024-03-22T09:22:05;13.93;;;7.70;;
84168;SDS011;74295;50.146;8.794;2024-03-22T09:32:08;10.47;;;6.57;;
84168;SDS011;74295;50.146;8.794;2024-03-22T09:42:11;11.67;;;6.97;;
84168;SDS011;74295;50.146;8.794;2024-03-22T09:52:20;8.20;;;6.57;;
84168;SDS011;74295;50.146;8.794;2024-03-22T10:02:22;7.25;;;5.75;;
84168;SDS011;74295;50.146;8.794;2024-03-22T10:12:28;6.57;;;5.45;;
84168;SDS011;74295;50.146;8.794;2024-03-22T10:22:29;6.75;;;5.18;;
84168;SDS011;74295;50.146;8.794;2024-03-22T10:32:32;10.45;;;5.13;;
84168;SDS011;74295;50.146;8.794;2024-03-22T10:42:35;8.48;;;4.68;;
84168;SDS011;74295;50.146;8.794;2024-03-22T10:52:39;8.00;;;5.38;;
84168;SDS011;74295;50.146;8.794;2024-03-22T11:02:46;8.93;;;5.53;;
84168;SDS011;74295;50.146;8.794;2024-03-22T11:12:49;10.15;;;6.90;;
84168;SDS011;74295;50.146;8.794;2024-03-22T11:22:53;11.93;;;8.25;;
84168;SDS011;74295;50.146;8.794;2024-03-22T11:32:56;10.65;;;6.30;;
84168;SDS011;74295;50.146;8.794;2024-03-22T11:42:58;8.10;;;6.93;;
84168;SDS011;74295;50.146;8.794;2024-03-22T11:53:02;10.02;;;5.82;;
84168;SDS011;74295;50.146;8.794;2024-03-22T12:03:06;10.73;;;7.07;;
84168;SDS011;74295;50.146;8.794;2024-03-22T12:13:09;20.33;;;13.90;;
84168;SDS011;74295;50.146;8.794;2024-03-22T12:23:11;13.82;;;8.05;;
84168;SDS011;74295;50.146;8.794;2024-03-22T12:33:14;10.95;;;7.20;;
84168;SDS011;74295;50.146;8.794;2024-03-22T12:43:16;12.13;;;7.97;;
84168;SDS011;74295;50.146;8.794;2024-03-22T12:53:19;13.20;;;9.02;;
84168;SDS011;74295;50.146;8.794;2024-03-22T13:03:20;10.05;;;8.48;;
84168;SDS011;74295;50.146;8.794;2024-03-22T13:13:23;8.88;;;7.50;;
84168;SDS011;74295;50.146;8.794;2024-03-22T13:23:25;13.70;;;9.10;;
84168;SDS011;74295;50.146;8.794;2024-03-22T13:33:28;10.40;;;7.22;;
84168;SDS011;74295;50.146;8.794;2024-03-22T13:43:30;10.07;;;7.88;;
84168;SDS011;74295;50.146;8.794;2024-03-22T13:53:33;8.82;;;6.40;;
84168;SDS011;74295;50.146;8.794;2024-03-22T14:03:35;12.60;;;7.05;;
84168;SDS011;74295;50.146;8.794;2024-03-22T14:13:38;10.35;;;7.78;;
84168;SDS011;74295;50.146;8.794;2024-03-22T14:23:39;12.52;;;7.15;;
84168;SDS011;74295;50.146;8.794;2024-03-22T14:33:42;13.48;;;8.20;;
84168;SDS011;74295;50.146;8.794;2024-03-22T14:43:44;11.25;;;7.85;;
84168;SDS011;74295;50.146;8.794;2024-03-22T14:53:47;12.45;;;8.32;;
84168;SDS011;74295;50.146;8.794;2024-03-22T15:03:49;11.63;;;9.57;;
84168;SDS011;74295;50.146;8.794;2024-03-22T15:13:53;12.00;;;8.88;;
84168;SDS011;74295;50.146;8.794;2024-03-22T15:23:55;12.90;;;8.18;;
84168;SDS011;74295;50.146;8.794;2024-03-22T15:33:58;11.18;;;8.68;;
84168;SDS011;74295;50.146;8.794;2024-03-22T15:44:00;16.50;;;11.75;;
84168;SDS011;74295;50.146;8.794;2024-03-22T15:54:03;16.25;;;11.45;;
84168;SDS011;74295;50.146;8.794;2024-03-22T16:04:05;22.23;;;14.38;;
84168;SDS011;74295;50.146;8.794;2024-03-22T16:14:08;19.88;;;11.95;;
84168;SDS011;74295;50.146;8.794;2024-03-22T16:24:10;16.40;;;10.07;;
84168;SDS011;74295;50.146;8.794;2024-03-22T16:34:13;12.90;;;10.35;;
84168;SDS011;74295;50.146;8.794;2024-03-22T16:44:15;16.73;;;11.05;;
84168;SDS011;74295;50.146;8.794;2024-03-22T16:54:18;20.40;;;15.80;;
84168;SDS011;74295;50.146;8.794;2024-03-22T17:04:20;24.05;;;18.90;;
84168;SDS011;74295;50.146;8.794;2024-03-22T17:14:23;16.73;;;12.43;;
84168;SDS011;74295;50.146;8.794;2024-03-22T17:24:25;17.70;;;11.65;;
84168;SDS011;74295;50.146;8.794;2024-03-22T17:34:29;24.25;;;17.35;;
84168;SDS011;74295;50.146;8.794;2024-03-22T17:44:30;17.40;;;12.45;;
84168;SDS011;74295;50.146;8.794;2024-03-22T17:54:33;17.08;;;10.82;;
84168;SDS011;74295;50.146;8.794;2024-03-22T18:04:35;20.38;;;15.05;;
84168;SDS011;74295;50.146;8.794;2024-03-22T18:14:38;21.23;;;12.53;;
84168;SDS011;74295;50.146;8.794;2024-03-22T18:24:40;28.80;;;21.10;;
84168;SDS011;74295;50.146;8.794;2024-03-22T18:34:43;20.20;;;14.27;;
84168;SDS011;74295;50.146;8.794;2024-03-22T18:44:45;15.83;;;10.70;;
84168;SDS011;74295;50.146;8.794;2024-03-22T18:54:51;19.07;;;13.20;;
84168;SDS011;74295;50.146;8.794;2024-03-22T19:04:58;22.73;;;11.60;;
84168;SDS011;74295;50.146;8.794;2024-03-22T19:15:02;14.90;;;10.83;;
84168;SDS011;74295;50.146;8.794;2024-03-22T19:25:06;14.57;;;10.63;;
84168;SDS011;74295;50.146;8.794;2024-03-22T19:35:09;18.57;;;13.63;;
84168;SDS011;74295;50.146;8.794;2024-03-22T19:45:12;20.73;;;13.13;;
84168;SDS011;74295;50.146;8.794;2024-03-22T19:55:15;22.07;;;14.07;;
84168;SDS011;74295;50.146;8.794;2024-03-22T20:05:17;18.90;;;14.67;;
84168;SDS011;74295;50.146;8.794;2024-03-22T20:15:20;23.23;;;16.13;;
84168;SDS011;74295;50.146;8.794;2024-03-22T20:25:24;28.47;;;19.03;;
84168;SDS011;74295;50.146;8.794;2024-03-22T20:35:28;26.73;;;17.63;;
